Flight Track Log - Related Links

Times and Time Zones

All times are in EDT time to prevent confusion due to time zone crossing. See the GJS3618 flight status page for this flight to view local times or setup timezone preferences in your user account.

Time Position Orientation Groundspeed Altitude Reporting Facility
EDT Latitude Longitude Course Direction KTS MPH feet Rate Location/Type
Tue 09:13:24 AM 42.0167 -87.8667 51° Northeast 205 236 2,900  Level Chicago TRACON
Tue 09:14:24 AM 42.0667 -87.7833 51° Northeast 262 302 4,700 800 Climbing Chicago TRACON
Tue 09:16:09 AM 42.1075 -87.6367 69° East 266 306 5,100 1,084 Climbing Chicago Center
Tue 09:17:10 AM 42.1217 -87.5306 80° East 284 327 7,700 2,488 Climbing Chicago Center
Tue 09:18:12 AM 42.1353 -87.4133 81° East 313 360 10,200 2,129 Climbing Chicago Center
Tue 09:19:14 AM 42.1425 -87.2886 85° East 330 380 12,100 1,854 Climbing Chicago Center
Tue 09:20:15 AM 42.1550 -87.1492 83° East 372 428 14,000 2,000 Climbing Chicago Center
Tue 09:21:17 AM 42.1489 -86.9967 93° East 406 467 16,200 2,274 Climbing Chicago Center
Tue 09:22:19 AM 42.0925 -86.8275 114° Southeast 417 480 18,700 2,244 Climbing Chicago Center
Tue 09:23:20 AM 42.0425 -86.6778 114° Southeast 430 495 20,800 1,854 Climbing Chicago Center
Tue 09:24:22 AM 41.9989 -86.5442 114° Southeast 440 506 22,500 1,610 Climbing Chicago Center
Tue 09:25:23 AM 41.9481 -86.3903 114° Southeast 449 517 24,100 1,659 Climbing Chicago Center
Tue 09:26:25 AM 41.8989 -86.1911 108° East 469 540 25,900 1,597 Climbing Chicago Center
Tue 09:27:27 AM 41.9267 -86.0167 78° East 478 550 27,400 1,463 Climbing Chicago Center
Tue 09:28:28 AM 41.9692 -85.8456 71° East 480 552 28,900 1,659 Climbing Chicago Center
Tue 09:29:30 AM 42.0067 -85.6689 74° East 487 560 30,800 1,597 Climbing Chicago Center
Tue 09:30:32 AM 42.0372 -85.5144 75° East 478 550 32,200 1,707 Climbing Chicago Center
Tue 09:31:33 AM 42.0789 -85.3092 75° East 475 547 34,300 1,366 Climbing Chicago Center
Tue 09:32:35 AM 42.1131 -85.1369 75° East 477 549 35,000 650 Climbing Chicago Center
Tue 09:33:33 AM 42.1517 -84.9614 73° East 478 550 35,600 610 Climbing Cleveland Center
Tue 09:34:33 AM 42.1875 -84.7789 75° East 483 556 36,200 600 Climbing Cleveland Center
Tue 09:35:33 AM 42.2144 -84.6150 77° East 496 571 36,800 400 Climbing Cleveland Center
Tue 09:36:33 AM 42.2497 -84.4322 75° East 501 577 37,000 100 Climbing Cleveland Center
Tue 09:37:33 AM 42.2850 -84.2517 75° East 501 577 37,000  Level Cleveland Center
Tue 09:38:33 AM 42.3175 -84.0794 76° East 489 563 37,000  Level Cleveland Center
Tue 09:39:33 AM 42.3497 -83.9042 76° East 484 557 37,000  Level Cleveland Center
Tue 09:40:33 AM 42.3839 -83.7289 75° East 479 551 37,000  Level Cleveland Center
Tue 09:41:33 AM 42.4119 -83.5333 79° East 479 551 37,000  Level Cleveland Center
Tue 09:42:33 AM 42.4144 -83.3533 89° East 484 557 37,000  Level Cleveland Center
Tue 09:43:33 AM 42.4228 -83.1681 86° East 478 550 37,000  Level Cleveland Center
Tue 09:44:33 AM 42.4289 -82.9856 87° East 478 550 37,000  Level Cleveland Center
Tue 09:45:33 AM 42.4347 -82.8000 87° East 478 550 37,000  Level Cleveland Center
Tue 09:46:33 AM 42.4400 -82.6175 88° East 478 550 37,000  Level Cleveland Center
Tue 09:47:33 AM 42.4453 -82.4347 88° East 478 550 37,000  Level Cleveland Center
Tue 09:48:33 AM 42.4503 -82.2519 88° East 478 550 37,000  Level Cleveland Center
Tue 09:49:33 AM 42.4547 -82.0747 88° East 478 550 37,000  Level Cleveland Center
Tue 09:50:33 AM 42.4589 -81.8919 88° East 478 550 37,000  Level Cleveland Center
Tue 09:51:33 AM 42.4650 -81.7314 87° East 478 550 37,000  Level Cleveland Center
Tue 09:52:33 AM 42.4686 -81.5458 88° East 478 550 37,000  Level Cleveland Center
Tue 09:53:33 AM 42.4722 -81.3658 88° East 478 550 37,000  Level Cleveland Center
Tue 09:54:33 AM 42.4775 -81.1686 88° East 478 550 37,000  Level Cleveland Center
Tue 09:55:33 AM 42.4803 -80.9831 89° East 478 550 37,000  Level Cleveland Center
Tue 09:56:33 AM 42.4808 -80.7972 90° East 483 556 37,000  Level Cleveland Center
Tue 09:57:33 AM 42.4831 -80.6086 89° East 496 571 37,000  Level Cleveland Center
Tue 09:58:32 AM 42.4850 -80.4283 89° East 491 565 37,000  Level Cleveland Center
Tue 09:59:33 AM 42.4867 -80.2425 89° East 491 565 37,000  Level Cleveland Center
Tue 10:00:33 AM 42.4883 -80.0567 89° East 496 571 37,000  Level Cleveland Center
Tue 10:01:33 AM 42.4894 -79.8792 89° East 496 571 37,000  Level Cleveland Center
Tue 10:02:33 AM 42.4900 -79.6767 90° East 496 571 37,000 -150 Level Cleveland Center
Tue 10:03:33 AM 42.4906 -79.4850 90° East 496 571 36,700 -600 Descending Cleveland Center
Tue 10:04:33 AM 42.4906 -79.2936 90° East 496 571 35,800 -850 Descending Cleveland Center
Tue 10:05:33 AM 42.5031 -79.1131 85° East 517 595 35,000 -400 Descending Cleveland Center
Tue 10:06:33 AM 42.5169 -78.9211 84° East 517 595 35,000  Level Cleveland Center
Tue 10:07:33 AM 42.5286 -78.7181 85° East 498 573 35,000  Level Cleveland Center
Tue 10:08:33 AM 42.5422 -78.5344 84° East 493 567 35,000 -50 Level Cleveland Center
Tue 10:09:33 AM 42.5517 -78.3706 85° East 479 551 34,900 -450 Descending Cleveland Center
Tue 10:10:33 AM 42.5644 -78.1869 85° East 487 560 34,100 -950 Descending Cleveland Center
Tue 10:11:33 AM 42.5772 -78.0003 85° East 492 566 33,000 -1,050 Descending Cleveland Center
Tue 10:12:33 AM 42.5850 -77.7969 87° East 498 573 32,000 -759 Descending Cleveland Center
Tue 10:14:11 AM 42.6061 -77.5103 84° East 501 577 31,000 -750 Descending Boston Center
Tue 10:15:13 AM 42.6164 -77.3247 86° East 501 577 30,000 -1,008 Descending Boston Center
Tue 10:16:10 AM 42.6264 -77.1392 86° East 496 571 29,000 -508 Descending Boston Center
Tue 10:17:11 AM 42.6358 -76.9536 86° East 490 564 29,000  Level Boston Center
Tue 10:18:11 AM 42.6450 -76.7764 86° East 490 564 29,000  Level Boston Center
Tue 10:19:12 AM 42.6536 -76.5961 86° East 485 558 29,000  Level Boston Center
Tue 10:20:12 AM 42.6603 -76.4131 87° East 477 549 29,000 -559 Level Boston Center
Tue 10:21:10 AM 42.6706 -76.2328 86° East 477 549 27,900 -1,373 Descending Boston Center
Tue 10:22:10 AM 42.6764 -76.0525 87° East 477 549 26,300 -1,475 Descending Boston Center
Tue 10:23:12 AM 42.6839 -75.8778 87° East 472 543 24,900 -1,450 Descending Boston Center
Tue 10:24:10 AM 42.6911 -75.7086 87° East 462 532 23,400 -1,513 Descending Boston Center
Tue 10:25:11 AM 42.6978 -75.5450 87° East 447 514 21,900 -1,475 Descending Boston Center
Tue 10:26:12 AM 42.7022 -75.3786 88° East 434 499 20,400 -1,537 Descending Boston Center
Tue 10:27:12 AM 42.7083 -75.2206 87° East 427 491 18,800 -1,550 Descending Boston Center
Tue 10:28:12 AM 42.7306 -75.0744 78° East 414 476 17,300 -1,576 Descending Boston Center
Tue 10:29:10 AM 42.7586 -74.9314 75° East 396 456 15,700 -1,714 Descending Boston Center
Tue 10:30:11 AM 42.7911 -74.7828 73° East 380 437 13,900 -1,755 Descending Boston Center
Tue 10:30:56 AM 42.8136 -74.6903 72° East 366 421 12,600 -1,900 Descending Boston Center
Tue 10:31:11 AM 42.8208 -74.6508 76° East 369 425 12,000 -1,433 Descending Boston Center
Tue 10:32:03 AM 42.8458 -74.5414 73° East 380 437 11,000 -492 Descending Boston Center
Tue 10:33:13 AM 42.8778 -74.3781 75° East 369 425 11,000 -47 Level Boston Center
Tue 10:34:10 AM 42.8925 -74.2453 81° East 364 419 10,900 -811 Descending Boston Center
Tue 10:35:04 AM 42.8817 -74.1317 97° East 334 384 9,500 -1,541 Descending Boston Center
Tue 10:35:59 AM 42.8706 -74.0350 99° East 315 362 8,100 -1,500 Descending Boston Center
Tue 10:37:00 AM 42.8597 -73.9158 97° East 310 357 6,600 -1,500 Descending Boston Center
Tue 10:37:59 AM 42.8467 -73.7967 98° East 292 336 5,100 -1,200 Descending Boston Center
Tue 10:39:05 AM 42.8417 -73.6831 93° East 274 315 4,100 -857 Descending Boston Center
Tue 10:40:12 AM 42.8344 -73.5894 96° East 259 298 3,200 -488 Descending Boston Center
Tue 10:41:08 AM 42.7825 -73.5631 160° South 199 229 3,100 -103 Descending Boston Center
Tue 10:42:08 AM 42.7550 -73.6022 226° Southwest 154 177 3,000 -496 Descending Boston Center
Tue 10:43:09 AM 42.7544 -73.6589 269° West 155 178 2,100 -744 Descending Boston Center
Tue 10:44:09 AM 42.7517 -73.7097 266° West 130 150 1,500 -293 Descending Boston Center
Tue 10:45:12 AM 42.7428 -73.7661 258° West 145 167 1,500  Level Boston Center

Login

Don't have an account? Register now (free) for customized features, flight alerts, and more!